SBMO

Zumbi dos Palmares Airport

Maceió, Brazil
TAF SBMO 251000Z 2512/2612 11011KT 9000 BKN020 TX28/2515Z TN21/2608Z BECMG 2520/2522 12007KT SCT020 BECMG 2603/2605 33004KT RMK PEA
Issued Valid From Valid To
Sep-25 @ 10:00 UTC
(7 hours ago)
Sep-25 @ 12:00 UTC
(5 hours ago)
Sep-26 @ 12:00 UTC
(in 19 hours)
Sep-25 @ 12:00 to Sep-25 @ 20:00
TAF SBMO 251000Z 2512/2612 11011KT 9000 BKN020 TX28/2515Z TN21/2608Z
Wind Visibility Clouds
110° at 11 knots 8,996 meters
  • Broken at 2,000' AGL
Becoming Sep-25 @ 20:00 to Sep-26 @ 03:00
BECMG 2520/2522 12007KT SCT020
Wind Visibility Clouds
120° at 7 knots 8,996 meters
  • Scattered at 2,000' AGL
Becoming Sep-26 @ 03:00 to Sep-26 @ 12:00
BECMG 2603/2605 33004KT RMK PEA
Wind Visibility Clouds
330° at 4 knots 8,996 meters
  • Scattered at 2,000' AGL
TAF SBMO 251000Z 2512/2612 11011KT 9000 BKN020 TX28/2515Z TN21/2608Z BECMG 2520/2522 12007KT SCT020 BECMG 2603/2605 33004KT RMK PEA
Issued Sep-25 @ 10:00 UTC
(7 hours ago)
Valid From Sep-25 @ 12:00 UTC
(5 hours ago)
Valid To Sep-26 @ 12:00 UTC
(in 19 hours)
Sep-25 @ 12:00 - Sep-25 @ 20:00
Wind Visibility
110° at 11 knots 8,996 meters
Clouds
  • Broken at 2,000' AGL
Becoming Sep-25 @ 20:00 - Sep-26 @ 03:00
Wind Visibility
120° at 7 knots 8,996 meters
Clouds
  • Scattered at 2,000' AGL
Becoming Sep-26 @ 03:00 - Sep-26 @ 12:00
Wind Visibility
330° at 4 knots 8,996 meters
Clouds
  • Scattered at 2,000' AGL